sensor_id;sensor_type;location;lat;lon;timestamp;pressure;altitude;pressure_sealevel;temperature;humidity
53715;BME280;39608;55.630;37.864;2023-08-08T00:00:49;98758.53;;;22.38;57.85
53715;BME280;39608;55.630;37.864;2023-08-08T00:05:53;98756.53;;;22.32;58.57
53715;BME280;39608;55.630;37.864;2023-08-08T00:10:55;98739.50;;;22.12;58.80
53715;BME280;39608;55.630;37.864;2023-08-08T00:15:57;98734.00;;;22.08;59.18
53715;BME280;39608;55.630;37.864;2023-08-08T00:21:00;98736.34;;;22.06;59.54
53715;BME280;39608;55.630;37.864;2023-08-08T00:26:02;98733.59;;;21.95;59.88
53715;BME280;39608;55.630;37.864;2023-08-08T00:31:05;98731.97;;;21.87;59.45
53715;BME280;39608;55.630;37.864;2023-08-08T00:36:08;98715.00;;;21.85;59.25
53715;BME280;39608;55.630;37.864;2023-08-08T00:41:10;98722.91;;;21.90;59.68
53715;BME280;39608;55.630;37.864;2023-08-08T00:46:12;98715.41;;;21.87;59.88
53715;BME280;39608;55.630;37.864;2023-08-08T00:51:15;98722.13;;;21.86;59.60
53715;BME280;39608;55.630;37.864;2023-08-08T00:56:18;98726.41;;;21.73;60.11
53715;BME280;39608;55.630;37.864;2023-08-08T01:01:20;98720.50;;;21.78;59.42
53715;BME280;39608;55.630;37.864;2023-08-08T01:06:29;98683.91;;;22.02;59.63
53715;BME280;39608;55.630;37.864;2023-08-08T01:11:34;98655.75;;;21.50;62.98
53715;BME280;39608;55.630;37.864;2023-08-08T01:16:39;98664.78;;;20.66;65.58
53715;BME280;39608;55.630;37.864;2023-08-08T01:21:44;98672.53;;;20.46;66.17
53715;BME280;39608;55.630;37.864;2023-08-08T01:26:48;98676.38;;;20.38;66.20
53715;BME280;39608;55.630;37.864;2023-08-08T01:31:51;98666.16;;;20.38;66.40
53715;BME280;39608;55.630;37.864;2023-08-08T01:36:56;98661.66;;;20.67;66.37
53715;BME280;39608;55.630;37.864;2023-08-08T01:42:01;98655.31;;;20.63;65.34
53715;BME280;39608;55.630;37.864;2023-08-08T01:47:03;98656.97;;;20.72;65.82
53715;BME280;39608;55.630;37.864;2023-08-08T01:52:06;98654.69;;;20.81;65.28
53715;BME280;39608;55.630;37.864;2023-08-08T01:57:09;98664.59;;;20.96;63.91
53715;BME280;39608;55.630;37.864;2023-08-08T02:02:11;98667.81;;;21.09;63.57
53715;BME280;39608;55.630;37.864;2023-08-08T02:07:13;98670.63;;;21.20;62.28
53715;BME280;39608;55.630;37.864;2023-08-08T02:12:17;98648.63;;;21.31;61.33
53715;BME280;39608;55.630;37.864;2023-08-08T02:17:20;98660.06;;;21.40;60.82
53715;BME280;39608;55.630;37.864;2023-08-08T02:22:22;98658.16;;;21.55;59.83
53715;BME280;39608;55.630;37.864;2023-08-08T02:27:26;98664.53;;;21.70;59.34
53715;BME280;39608;55.630;37.864;2023-08-08T02:32:28;98656.66;;;21.86;58.23
53715;BME280;39608;55.630;37.864;2023-08-08T02:37:30;98662.19;;;22.01;58.16
53715;BME280;39608;55.630;37.864;2023-08-08T02:42:33;98668.50;;;22.01;57.52
53715;BME280;39608;55.630;37.864;2023-08-08T02:47:35;98664.94;;;21.97;57.57
53715;BME280;39608;55.630;37.864;2023-08-08T02:52:37;98666.13;;;22.00;57.83
53715;BME280;39608;55.630;37.864;2023-08-08T02:57:41;98657.88;;;22.11;56.98
53715;BME280;39608;55.630;37.864;2023-08-08T03:02:43;98660.22;;;22.23;56.73
53715;BME280;39608;55.630;37.864;2023-08-08T03:07:45;98676.44;;;22.35;56.35
53715;BME280;39608;55.630;37.864;2023-08-08T03:12:48;98677.22;;;22.39;56.48
53715;BME280;39608;55.630;37.864;2023-08-08T03:17:50;98671.28;;;22.30;56.83
53715;BME280;39608;55.630;37.864;2023-08-08T03:22:52;98677.19;;;22.32;56.72
53715;BME280;39608;55.630;37.864;2023-08-08T03:27:56;98674.06;;;22.48;56.07
53715;BME280;39608;55.630;37.864;2023-08-08T03:32:58;98686.69;;;22.53;56.37
53715;BME280;39608;55.630;37.864;2023-08-08T03:38:00;98676.41;;;22.53;55.98
53715;BME280;39608;55.630;37.864;2023-08-08T03:43:04;98678.78;;;22.59;55.97
53715;BME280;39608;55.630;37.864;2023-08-08T03:48:07;98687.09;;;22.59;55.82
53715;BME280;39608;55.630;37.864;2023-08-08T03:53:09;98688.28;;;22.61;56.05
53715;BME280;39608;55.630;37.864;2023-08-08T03:58:12;98693.78;;;22.65;56.21
53715;BME280;39608;55.630;37.864;2023-08-08T04:03:15;98706.81;;;22.68;55.95
53715;BME280;39608;55.630;37.864;2023-08-08T04:08:18;98703.25;;;22.78;55.96
53715;BME280;39608;55.630;37.864;2023-08-08T04:13:21;98716.69;;;22.83;55.81
53715;BME280;39608;55.630;37.864;2023-08-08T04:18:23;98726.94;;;22.76;56.13
53715;BME280;39608;55.630;37.864;2023-08-08T04:23:25;98720.66;;;22.57;57.94
53715;BME280;39608;55.630;37.864;2023-08-08T04:28:29;98721.44;;;22.36;58.42
53715;BME280;39608;55.630;37.864;2023-08-08T04:33:31;98722.16;;;22.26;58.83
53715;BME280;39608;55.630;37.864;2023-08-08T04:38:33;98709.16;;;22.30;58.69
53715;BME280;39608;55.630;37.864;2023-08-08T04:43:36;98729.72;;;22.36;58.82
53715;BME280;39608;55.630;37.864;2023-08-08T04:48:38;98730.09;;;22.52;58.34
53715;BME280;39608;55.630;37.864;2023-08-08T04:53:40;98719.00;;;22.99;57.07
53715;BME280;39608;55.630;37.864;2023-08-08T04:58:44;98733.13;;;23.52;56.11
53715;BME280;39608;55.630;37.864;2023-08-08T05:03:47;98728.59;;;23.87;54.99
53715;BME280;39608;55.630;37.864;2023-08-08T05:08:51;98745.16;;;24.01;54.61
53715;BME280;39608;55.630;37.864;2023-08-08T05:13:55;98741.09;;;24.17;54.43
53715;BME280;39608;55.630;37.864;2023-08-08T05:18:57;98729.56;;;24.25;54.39
53715;BME280;39608;55.630;37.864;2023-08-08T05:23:59;98707.91;;;24.09;55.09
53715;BME280;39608;55.630;37.864;2023-08-08T05:29:03;98732.91;;;23.95;55.32
53715;BME280;39608;55.630;37.864;2023-08-08T05:34:05;98723.88;;;23.77;55.34
53715;BME280;39608;55.630;37.864;2023-08-08T05:39:07;98730.75;;;23.47;56.61
53715;BME280;39608;55.630;37.864;2023-08-08T05:44:11;98735.97;;;23.23;57.35
53715;BME280;39608;55.630;37.864;2023-08-08T05:49:13;98733.25;;;22.90;58.44
53715;BME280;39608;55.630;37.864;2023-08-08T05:54:15;98722.59;;;22.89;59.86
53715;BME280;39608;55.630;37.864;2023-08-08T05:59:19;98745.44;;;23.11;58.96
53715;BME280;39608;55.630;37.864;2023-08-08T06:04:21;98750.97;;;23.33;58.55
53715;BME280;39608;55.630;37.864;2023-08-08T06:09:23;98744.50;;;23.68;58.04
53715;BME280;39608;55.630;37.864;2023-08-08T06:14:27;98752.66;;;24.04;56.83
53715;BME280;39608;55.630;37.864;2023-08-08T06:19:29;98741.34;;;24.40;56.30
53715;BME280;39608;55.630;37.864;2023-08-08T06:24:31;98749.78;;;25.17;54.01
53715;BME280;39608;55.630;37.864;2023-08-08T06:29:34;98752.47;;;26.47;51.29
53715;BME280;39608;55.630;37.864;2023-08-08T06:34:36;98741.69;;;28.01;47.40
53715;BME280;39608;55.630;37.864;2023-08-08T06:39:38;98745.75;;;28.66;46.00
53715;BME280;39608;55.630;37.864;2023-08-08T06:44:43;98748.31;;;29.06;45.44
53715;BME280;39608;55.630;37.864;2023-08-08T06:49:45;98757.47;;;28.08;46.16
53715;BME280;39608;55.630;37.864;2023-08-08T06:54:47;98744.56;;;27.77;46.99
53715;BME280;39608;55.630;37.864;2023-08-08T06:59:51;98752.78;;;28.21;46.05
53715;BME280;39608;55.630;37.864;2023-08-08T07:04:53;98748.72;;;27.69;47.49
53715;BME280;39608;55.630;37.864;2023-08-08T07:09:55;98749.22;;;27.64;47.89
53715;BME280;39608;55.630;37.864;2023-08-08T07:14:59;98753.22;;;27.63;47.94
53715;BME280;39608;55.630;37.864;2023-08-08T07:20:01;98757.78;;;27.53;47.02
53715;BME280;39608;55.630;37.864;2023-08-08T07:25:05;98775.63;;;26.92;48.81
53715;BME280;39608;55.630;37.864;2023-08-08T07:30:10;98782.34;;;26.43;49.21
53715;BME280;39608;55.630;37.864;2023-08-08T07:35:13;98776.59;;;26.00;50.41
53715;BME280;39608;55.630;37.864;2023-08-08T07:40:16;98771.50;;;25.64;52.15
53715;BME280;39608;55.630;37.864;2023-08-08T07:45:22;98770.81;;;25.14;58.54
53715;BME280;39608;55.630;37.864;2023-08-08T07:50:25;98784.19;;;24.85;57.70
53715;BME280;39608;55.630;37.864;2023-08-08T07:55:27;98784.03;;;24.99;60.13
53715;BME280;39608;55.630;37.864;2023-08-08T08:00:30;98788.94;;;25.26;57.52
53715;BME280;39608;55.630;37.864;2023-08-08T08:05:32;98787.00;;;25.61;57.02
53715;BME280;39608;55.630;37.864;2023-08-08T08:10:35;98781.03;;;26.52;53.65
53715;BME280;39608;55.630;37.864;2023-08-08T08:15:39;98790.72;;;27.38;50.64
53715;BME280;39608;55.630;37.864;2023-08-08T08:20:41;98791.53;;;26.91;52.14
53715;BME280;39608;55.630;37.864;2023-08-08T08:25:43;98793.97;;;26.62;54.47
53715;BME280;39608;55.630;37.864;2023-08-08T08:30:47;98794.53;;;26.50;52.18
53715;BME280;39608;55.630;37.864;2023-08-08T08:35:50;98799.28;;;25.60;54.89
53715;BME280;39608;55.630;37.864;2023-08-08T08:40:54;98819.81;;;25.28;56.33
53715;BME280;39608;55.630;37.864;2023-08-08T08:46:00;98816.91;;;25.04;57.51
53715;BME280;39608;55.630;37.864;2023-08-08T08:51:03;98808.34;;;25.30;58.24
53715;BME280;39608;55.630;37.864;2023-08-08T08:56:06;98818.81;;;25.53;56.67
53715;BME280;39608;55.630;37.864;2023-08-08T09:01:10;98823.78;;;26.03;55.79
53715;BME280;39608;55.630;37.864;2023-08-08T09:06:14;98796.75;;;27.33;52.51
53715;BME280;39608;55.630;37.864;2023-08-08T09:11:16;98809.31;;;28.05;52.04
53715;BME280;39608;55.630;37.864;2023-08-08T09:16:20;98826.03;;;28.05;50.38
53715;BME280;39608;55.630;37.864;2023-08-08T09:21:22;98833.94;;;28.43;48.32
53715;BME280;39608;55.630;37.864;2023-08-08T09:26:24;98845.31;;;29.64;46.98
53715;BME280;39608;55.630;37.864;2023-08-08T09:31:28;98821.56;;;30.28;44.89
53715;BME280;39608;55.630;37.864;2023-08-08T09:36:30;98827.16;;;30.79;44.30
53715;BME280;39608;55.630;37.864;2023-08-08T09:41:33;98830.19;;;30.72;42.91
53715;BME280;39608;55.630;37.864;2023-08-08T09:46:37;98836.13;;;30.87;41.98
53715;BME280;39608;55.630;37.864;2023-08-08T09:51:41;98828.69;;;31.76;40.15
53715;BME280;39608;55.630;37.864;2023-08-08T09:56:43;98834.25;;;31.54;40.39
53715;BME280;39608;55.630;37.864;2023-08-08T10:01:47;98844.25;;;31.77;41.04
53715;BME280;39608;55.630;37.864;2023-08-08T10:06:49;98851.75;;;32.24;41.55
53715;BME280;39608;55.630;37.864;2023-08-08T10:11:52;98850.91;;;31.93;40.67
53715;BME280;39608;55.630;37.864;2023-08-08T10:16:58;98851.19;;;32.39;39.80
53715;BME280;39608;55.630;37.864;2023-08-08T10:22:03;98855.13;;;32.51;40.14
53715;BME280;39608;55.630;37.864;2023-08-08T10:27:06;98835.47;;;32.91;38.31
53715;BME280;39608;55.630;37.864;2023-08-08T10:32:09;98843.25;;;36.26;33.68
53715;BME280;39608;55.630;37.864;2023-08-08T10:37:12;98842.63;;;41.58;27.58
53715;BME280;39608;55.630;37.864;2023-08-08T10:42:18;98854.13;;;43.42;24.60
53715;BME280;39608;55.630;37.864;2023-08-08T10:47:23;98872.81;;;42.75;25.52
53715;BME280;39608;55.630;37.864;2023-08-08T10:52:25;98858.13;;;39.02;29.09
53715;BME280;39608;55.630;37.864;2023-08-08T10:57:28;98856.25;;;38.50;30.03
53715;BME280;39608;55.630;37.864;2023-08-08T11:02:31;98857.38;;;38.26;29.38
53715;BME280;39608;55.630;37.864;2023-08-08T11:07:34;98863.94;;;38.44;28.98
53715;BME280;39608;55.630;37.864;2023-08-08T11:12:37;98861.13;;;36.83;30.46
53715;BME280;39608;55.630;37.864;2023-08-08T11:17:44;98871.97;;;35.16;32.92
53715;BME280;39608;55.630;37.864;2023-08-08T11:22:51;98875.53;;;33.51;35.29
53715;BME280;39608;55.630;37.864;2023-08-08T11:27:54;98867.28;;;32.48;37.70
53715;BME280;39608;55.630;37.864;2023-08-08T11:32:59;98867.91;;;31.54;38.54
53715;BME280;39608;55.630;37.864;2023-08-08T11:38:03;98870.91;;;31.25;39.34
53715;BME280;39608;55.630;37.864;2023-08-08T11:43:08;98868.03;;;30.89;40.52
53715;BME280;39608;55.630;37.864;2023-08-08T11:48:13;98875.75;;;30.60;41.02
53715;BME280;39608;55.630;37.864;2023-08-08T11:53:15;98884.09;;;30.21;42.01
53715;BME280;39608;55.630;37.864;2023-08-08T11:58:17;98878.63;;;29.88;42.11
53715;BME280;39608;55.630;37.864;2023-08-08T12:03:21;98883.97;;;29.82;42.87
53715;BME280;39608;55.630;37.864;2023-08-08T12:08:23;98879.00;;;29.44;43.31
53715;BME280;39608;55.630;37.864;2023-08-08T12:13:26;98884.25;;;29.09;44.33
53715;BME280;39608;55.630;37.864;2023-08-08T12:18:31;98881.72;;;29.15;44.40
53715;BME280;39608;55.630;37.864;2023-08-08T12:23:33;98877.88;;;29.25;45.06
53715;BME280;39608;55.630;37.864;2023-08-08T12:28:35;98877.75;;;29.91;44.86
53715;BME280;39608;55.630;37.864;2023-08-08T12:33:40;98876.56;;;30.47;43.78
53715;BME280;39608;55.630;37.864;2023-08-08T12:38:42;98870.34;;;30.40;44.13
53715;BME280;39608;55.630;37.864;2023-08-08T12:43:44;98867.91;;;29.86;44.46
53715;BME280;39608;55.630;37.864;2023-08-08T12:48:47;98879.72;;;29.32;45.96
53715;BME280;39608;55.630;37.864;2023-08-08T12:53:49;98874.03;;;28.86;45.99
53715;BME280;39608;55.630;37.864;2023-08-08T12:58:51;98876.34;;;28.55;46.49
53715;BME280;39608;55.630;37.864;2023-08-08T13:03:55;98873.66;;;28.31;46.84
53715;BME280;39608;55.630;37.864;2023-08-08T13:08:57;98864.38;;;27.97;47.91
53715;BME280;39608;55.630;37.864;2023-08-08T13:13:59;98872.22;;;27.82;47.90
53715;BME280;39608;55.630;37.864;2023-08-08T13:19:03;98865.59;;;27.76;48.46
53715;BME280;39608;55.630;37.864;2023-08-08T13:24:06;98868.09;;;27.71;49.34
53715;BME280;39608;55.630;37.864;2023-08-08T13:29:11;98869.97;;;27.77;49.44
53715;BME280;39608;55.630;37.864;2023-08-08T13:34:15;98867.47;;;28.03;48.90
53715;BME280;39608;55.630;37.864;2023-08-08T13:39:17;98864.69;;;28.40;48.17
53715;BME280;39608;55.630;37.864;2023-08-08T13:44:19;98867.38;;;28.63;47.67
53715;BME280;39608;55.630;37.864;2023-08-08T13:49:23;98865.13;;;28.38;48.29
53715;BME280;39608;55.630;37.864;2023-08-08T13:54:26;98861.38;;;28.28;48.58
53715;BME280;39608;55.630;37.864;2023-08-08T13:59:29;98861.03;;;28.06;49.09
53715;BME280;39608;55.630;37.864;2023-08-08T14:04:32;98857.03;;;28.07;49.22
53715;BME280;39608;55.630;37.864;2023-08-08T14:09:34;98863.38;;;28.28;48.86
53715;BME280;39608;55.630;37.864;2023-08-08T14:14:36;98863.25;;;28.51;47.89
53715;BME280;39608;55.630;37.864;2023-08-08T14:19:39;98864.72;;;29.26;47.27
53715;BME280;39608;55.630;37.864;2023-08-08T14:24:42;98874.28;;;31.54;42.76
53715;BME280;39608;55.630;37.864;2023-08-08T14:29:44;98872.09;;;31.36;42.92
53715;BME280;39608;55.630;37.864;2023-08-08T14:34:47;98880.53;;;30.33;45.34
53715;BME280;39608;55.630;37.864;2023-08-08T14:39:49;98886.31;;;29.55;47.04
53715;BME280;39608;55.630;37.864;2023-08-08T14:44:51;98876.91;;;29.15;47.56
53715;BME280;39608;55.630;37.864;2023-08-08T14:49:55;98887.22;;;29.35;47.50
53715;BME280;39608;55.630;37.864;2023-08-08T14:54:57;98873.84;;;30.57;45.03
53715;BME280;39608;55.630;37.864;2023-08-08T14:59:59;98871.81;;;32.45;40.81
53715;BME280;39608;55.630;37.864;2023-08-08T15:05:04;98872.41;;;33.58;38.87
53715;BME280;39608;55.630;37.864;2023-08-08T15:10:07;98868.03;;;33.94;37.56
53715;BME280;39608;55.630;37.864;2023-08-08T15:15:10;98875.13;;;33.03;39.01
53715;BME280;39608;55.630;37.864;2023-08-08T15:20:13;98874.59;;;32.45;40.28
53715;BME280;39608;55.630;37.864;2023-08-08T15:25:15;98876.22;;;31.45;42.30
53715;BME280;39608;55.630;37.864;2023-08-08T15:30:17;98880.03;;;30.64;44.22
53715;BME280;39608;55.630;37.864;2023-08-08T15:35:21;98884.88;;;29.63;46.40
53715;BME280;39608;55.630;37.864;2023-08-08T15:40:23;98891.56;;;28.87;48.57
53715;BME280;39608;55.630;37.864;2023-08-08T15:45:26;98888.97;;;28.23;49.18
53715;BME280;39608;55.630;37.864;2023-08-08T15:50:29;98887.97;;;27.93;50.06
53715;BME280;39608;55.630;37.864;2023-08-08T15:55:31;98904.88;;;27.62;51.26
53715;BME280;39608;55.630;37.864;2023-08-08T16:00:33;98903.84;;;27.28;52.03
53715;BME280;39608;55.630;37.864;2023-08-08T16:05:37;98895.91;;;27.03;52.41
53715;BME280;39608;55.630;37.864;2023-08-08T16:10:39;98904.25;;;26.76;53.65
53715;BME280;39608;55.630;37.864;2023-08-08T16:15:42;98899.66;;;26.62;54.29
53715;BME280;39608;55.630;37.864;2023-08-08T16:20:45;98908.94;;;26.52;54.62
53715;BME280;39608;55.630;37.864;2023-08-08T16:25:47;98907.56;;;26.36;54.04
53715;BME280;39608;55.630;37.864;2023-08-08T16:30:49;98922.34;;;26.29;54.15
53715;BME280;39608;55.630;37.864;2023-08-08T16:35:53;98926.91;;;26.12;55.67
53715;BME280;39608;55.630;37.864;2023-08-08T16:40:55;98944.47;;;26.02;56.64
53715;BME280;39608;55.630;37.864;2023-08-08T16:45:57;98942.56;;;25.95;55.41
53715;BME280;39608;55.630;37.864;2023-08-08T16:51:02;98952.06;;;25.98;53.60
53715;BME280;39608;55.630;37.864;2023-08-08T16:56:05;98940.78;;;25.74;52.97
53715;BME280;39608;55.630;37.864;2023-08-08T17:01:07;98957.88;;;25.69;53.02
53715;BME280;39608;55.630;37.864;2023-08-08T17:06:11;98965.53;;;25.58;53.13
53715;BME280;39608;55.630;37.864;2023-08-08T17:11:13;98970.88;;;25.34;53.71
53715;BME280;39608;55.630;37.864;2023-08-08T17:16:16;98965.81;;;25.18;53.75
53715;BME280;39608;55.630;37.864;2023-08-08T17:21:20;98982.50;;;25.15;53.80
53715;BME280;39608;55.630;37.864;2023-08-08T17:26:22;98980.59;;;25.01;53.70
53715;BME280;39608;55.630;37.864;2023-08-08T17:31:24;98994.97;;;24.85;54.00
53715;BME280;39608;55.630;37.864;2023-08-08T17:36:27;99004.16;;;24.67;54.59
53715;BME280;39608;55.630;37.864;2023-08-08T17:41:29;99007.00;;;24.46;54.45
53715;BME280;39608;55.630;37.864;2023-08-08T17:46:32;99009.00;;;24.34;54.68
53715;BME280;39608;55.630;37.864;2023-08-08T17:51:36;99009.81;;;24.24;54.63
53715;BME280;39608;55.630;37.864;2023-08-08T17:56:38;99013.03;;;24.08;54.85
53715;BME280;39608;55.630;37.864;2023-08-08T18:01:40;99016.97;;;24.03;55.42
53715;BME280;39608;55.630;37.864;2023-08-08T18:06:45;99009.88;;;23.99;55.43
53715;BME280;39608;55.630;37.864;2023-08-08T18:11:47;99016.22;;;23.88;55.46
53715;BME280;39608;55.630;37.864;2023-08-08T18:16:49;99020.56;;;23.86;55.12
53715;BME280;39608;55.630;37.864;2023-08-08T18:21:53;99023.72;;;23.81;55.43
53715;BME280;39608;55.630;37.864;2023-08-08T18:26:56;99032.00;;;23.70;55.28
53715;BME280;39608;55.630;37.864;2023-08-08T18:31:58;99024.09;;;23.61;55.41
53715;BME280;39608;55.630;37.864;2023-08-08T18:37:03;99023.72;;;23.59;55.55
53715;BME280;39608;55.630;37.864;2023-08-08T18:42:05;99023.72;;;23.55;55.26
53715;BME280;39608;55.630;37.864;2023-08-08T18:47:07;99021.75;;;23.52;55.30
53715;BME280;39608;55.630;37.864;2023-08-08T18:52:11;99031.22;;;23.51;55.48
53715;BME280;39608;55.630;37.864;2023-08-08T18:57:13;99031.25;;;23.55;55.22
53715;BME280;39608;55.630;37.864;2023-08-08T19:02:15;99040.72;;;23.72;54.65
53715;BME280;39608;55.630;37.864;2023-08-08T19:07:18;99033.97;;;23.84;54.42
53715;BME280;39608;55.630;37.864;2023-08-08T19:12:20;99033.59;;;23.82;54.49
53715;BME280;39608;55.630;37.864;2023-08-08T19:17:22;99036.38;;;23.74;54.42
53715;BME280;39608;55.630;37.864;2023-08-08T19:22:26;99041.13;;;23.81;54.22
53715;BME280;39608;55.630;37.864;2023-08-08T19:27:28;99045.47;;;23.71;54.71
53715;BME280;39608;55.630;37.864;2023-08-08T19:32:30;99043.84;;;23.27;56.14
53715;BME280;39608;55.630;37.864;2023-08-08T19:37:33;99042.91;;;22.87;56.97
53715;BME280;39608;55.630;37.864;2023-08-08T19:42:35;99032.13;;;22.56;57.71
53715;BME280;39608;55.630;37.864;2023-08-08T19:47:37;99047.38;;;22.32;58.43
53715;BME280;39608;55.630;37.864;2023-08-08T19:52:41;99046.16;;;22.26;58.65
53715;BME280;39608;55.630;37.864;2023-08-08T19:57:43;99049.66;;;22.23;58.13
53715;BME280;39608;55.630;37.864;2023-08-08T20:02:45;99043.50;;;22.41;57.56
53715;BME280;39608;55.630;37.864;2023-08-08T20:07:48;99047.16;;;22.66;56.10
53715;BME280;39608;55.630;37.864;2023-08-08T20:12:50;99039.75;;;22.88;55.22
53715;BME280;39608;55.630;37.864;2023-08-08T20:17:52;99025.59;;;23.08;54.85
53715;BME280;39608;55.630;37.864;2023-08-08T20:22:56;99029.56;;;23.11;54.45
53715;BME280;39608;55.630;37.864;2023-08-08T20:27:58;99035.41;;;22.91;54.78
53715;BME280;39608;55.630;37.864;2023-08-08T20:33:00;99029.41;;;22.67;55.32
53715;BME280;39608;55.630;37.864;2023-08-08T20:38:04;99038.81;;;22.48;55.90
53715;BME280;39608;55.630;37.864;2023-08-08T20:43:06;99036.63;;;22.20;56.23
53715;BME280;39608;55.630;37.864;2023-08-08T20:48:08;99035.03;;;22.15;56.50
53715;BME280;39608;55.630;37.864;2023-08-08T20:53:12;99027.22;;;22.28;55.69
53715;BME280;39608;55.630;37.864;2023-08-08T20:58:14;99022.13;;;22.30;55.52
53715;BME280;39608;55.630;37.864;2023-08-08T21:03:16;99013.44;;;22.32;54.50
53715;BME280;39608;55.630;37.864;2023-08-08T21:08:19;99011.13;;;22.37;54.70
53715;BME280;39608;55.630;37.864;2023-08-08T21:13:21;99006.25;;;22.20;54.45
53715;BME280;39608;55.630;37.864;2023-08-08T21:18:23;99011.66;;;22.02;55.47
53715;BME280;39608;55.630;37.864;2023-08-08T21:23:27;99004.06;;;21.88;56.13
53715;BME280;39608;55.630;37.864;2023-08-08T21:28:29;99015.84;;;21.78;56.54
53715;BME280;39608;55.630;37.864;2023-08-08T21:33:31;99027.88;;;22.03;55.73
53715;BME280;39608;55.630;37.864;2023-08-08T21:38:34;99030.16;;;21.98;55.83
53715;BME280;39608;55.630;37.864;2023-08-08T21:43:36;99032.94;;;21.98;55.91
53715;BME280;39608;55.630;37.864;2023-08-08T21:48:41;99028.22;;;21.98;55.95
53715;BME280;39608;55.630;37.864;2023-08-08T21:53:45;99025.81;;;21.93;56.53
53715;BME280;39608;55.630;37.864;2023-08-08T21:58:47;99037.63;;;21.90;56.04
53715;BME280;39608;55.630;37.864;2023-08-08T22:03:48;99039.22;;;21.95;56.14
53715;BME280;39608;55.630;37.864;2023-08-08T22:08:52;99027.81;;;21.96;56.29
53715;BME280;39608;55.630;37.864;2023-08-08T22:13:54;99037.94;;;21.78;56.63
53715;BME280;39608;55.630;37.864;2023-08-08T22:18:56;99032.75;;;21.69;57.40
53715;BME280;39608;55.630;37.864;2023-08-08T22:23:59;99031.19;;;21.75;57.44
53715;BME280;39608;55.630;37.864;2023-08-08T22:29:01;99023.22;;;21.63;57.78
53715;BME280;39608;55.630;37.864;2023-08-08T22:34:03;99019.53;;;21.48;58.33
53715;BME280;39608;55.630;37.864;2023-08-08T22:39:07;99017.88;;;21.40;58.70
53715;BME280;39608;55.630;37.864;2023-08-08T22:44:09;99023.66;;;21.27;59.06
53715;BME280;39608;55.630;37.864;2023-08-08T22:49:11;99018.91;;;21.24;59.57
53715;BME280;39608;55.630;37.864;2023-08-08T22:54:15;99025.91;;;21.18;59.79
53715;BME280;39608;55.630;37.864;2023-08-08T22:59:17;99026.22;;;21.09;59.74
53715;BME280;39608;55.630;37.864;2023-08-08T23:04:19;99025.41;;;21.05;59.98
53715;BME280;39608;55.630;37.864;2023-08-08T23:09:22;99017.44;;;20.96;60.30
53715;BME280;39608;55.630;37.864;2023-08-08T23:14:24;99019.31;;;20.89;60.97
53715;BME280;39608;55.630;37.864;2023-08-08T23:19:26;99020.41;;;20.80;61.32
53715;BME280;39608;55.630;37.864;2023-08-08T23:24:30;99015.31;;;20.82;61.22
53715;BME280;39608;55.630;37.864;2023-08-08T23:29:32;99019.53;;;20.73;61.39
53715;BME280;39608;55.630;37.864;2023-08-08T23:34:34;99010.31;;;20.61;61.65
53715;BME280;39608;55.630;37.864;2023-08-08T23:39:38;99004.34;;;20.56;62.57
53715;BME280;39608;55.630;37.864;2023-08-08T23:44:40;98997.22;;;20.51;62.44
53715;BME280;39608;55.630;37.864;2023-08-08T23:49:42;99008.78;;;20.64;61.84
53715;BME280;39608;55.630;37.864;2023-08-08T23:54:46;98999.84;;;20.74;62.03
53715;BME280;39608;55.630;37.864;2023-08-08T23:59:48;98994.31;;;20.71;62.02
